Time;durP1;ratioP1;P1;durP2;ratioP2;P2;SDS_P1;SDS_P2;PMS_P1;PMS_P2;Temp;Humidity;BMP_temperature;BMP_pressure;BME280_temperature;BME280_humidity;BME280_pressure;Samples;Min_cycle;Max_cycle;Signal;HPM_P1;HPM_P2
2022/06/08 00:02:22;;;;;;;3.78;2.15;;;16.90;99.90;;;;;;5075284;23;20037;-44
2022/06/08 00:04:48;;;;;;;4.32;2.42;;;16.80;99.90;;;;;;5051131;28;20025;-44
2022/06/08 00:07:13;;;;;;;5.88;2.28;;;16.80;99.90;;;;;;5051664;28;20079;-47
2022/06/08 00:09:40;;;;;;;5.10;2.60;;;16.70;99.90;;;;;;5052197;28;20098;-44
2022/06/08 00:12:06;;;;;;;5.25;2.38;;;16.70;99.90;;;;;;5052095;28;20021;-43
2022/06/08 00:14:32;;;;;;;2.88;2.67;;;16.70;99.90;;;;;;5052174;28;20029;-43
2022/06/08 00:16:57;;;;;;;3.58;2.53;;;16.70;99.90;;;;;;5051350;28;20025;-43
2022/06/08 00:19:23;;;;;;;4.45;2.40;;;16.60;99.90;;;;;;5052116;28;20096;-45
2022/06/08 00:21:48;;;;;;;5.90;2.30;;;16.60;99.90;;;;;;5052392;28;20438;-44
2022/06/08 00:24:14;;;;;;;3.45;2.80;;;16.60;99.90;;;;;;5052047;28;20104;-43
2022/06/08 00:26:39;;;;;;;3.30;3.03;;;16.60;99.90;;;;;;5051742;28;20029;-44
2022/06/08 00:29:05;;;;;;;4.65;3.33;;;16.50;99.90;;;;;;5050524;28;20403;-44
2022/06/08 00:31:31;;;;;;;10.55;3.15;;;16.50;99.90;;;;;;5051729;28;20035;-50
2022/06/08 00:33:57;;;;;;;6.60;3.17;;;16.40;99.90;;;;;;5051865;28;20032;-47
2022/06/08 00:36:23;;;;;;;4.15;3.30;;;16.40;99.90;;;;;;5051570;28;20419;-48
2022/06/08 00:38:48;;;;;;;6.00;3.72;;;16.30;99.90;;;;;;5051523;28;20056;-44
2022/06/08 00:41:52;;;;;;;5.18;4.57;;;16.30;99.90;;;;;;5051426;28;20058;-48
2022/06/08 00:44:36;;;;;;;7.95;4.50;;;16.20;99.90;;;;;;5051715;28;20049;-45
2022/06/08 00:47:04;;;;;;;5.15;4.65;;;16.10;99.90;;;;;;5051168;28;20036;-44
2022/06/08 00:49:41;;;;;;;5.43;4.72;;;16.00;99.90;;;;;;5051648;28;20013;-47
2022/06/08 00:52:08;;;;;;;4.97;4.13;;;15.90;99.90;;;;;;5051379;28;20522;-49
2022/06/08 00:54:48;;;;;;;10.15;4.82;;;15.90;99.90;;;;;;5051468;28;20025;-47
2022/06/08 00:57:17;;;;;;;11.02;5.93;;;15.80;99.90;;;;;;5050760;28;20021;-45
2022/06/08 00:59:49;;;;;;;8.90;4.72;;;15.80;99.90;;;;;;5051421;28;20022;-44
2022/06/08 01:02:15;;;;;;;4.93;4.35;;;15.80;99.90;;;;;;5051312;28;20281;-45
2022/06/08 01:04:41;;;;;;;7.50;4.40;;;15.80;99.90;;;;;;5051235;28;20032;-48
2022/06/08 01:07:07;;;;;;;6.63;4.40;;;15.80;99.90;;;;;;5049625;28;20408;-46
2022/06/08 01:09:37;;;;;;;7.63;4.13;;;15.80;99.90;;;;;;5051390;28;20074;-43
2022/06/08 01:12:09;;;;;;;9.68;5.60;;;15.80;99.90;;;;;;5051266;28;20017;-44
2022/06/08 01:14:35;;;;;;;8.50;5.22;;;15.70;99.90;;;;;;5051277;28;20041;-51
2022/06/08 01:17:08;;;;;;;7.70;4.85;;;15.70;99.90;;;;;;5050277;28;20072;-46
2022/06/08 01:19:36;;;;;;;4.70;4.30;;;15.70;99.90;;;;;;5051256;28;20070;-46
2022/06/08 01:22:04;;;;;;;6.75;4.57;;;15.70;99.90;;;;;;5050998;28;20032;-46
2022/06/08 01:24:31;;;;;;;6.85;4.60;;;15.70;99.90;;;;;;5051162;28;20021;-47
2022/06/08 01:27:05;;;;;;;9.77;5.47;;;15.70;99.90;;;;;;5049310;28;20033;-50
2022/06/08 01:29:42;;;;;;;6.50;5.00;;;15.70;99.90;;;;;;5049984;28;20025;-46
2022/06/08 01:32:19;;;;;;;6.40;4.82;;;15.70;99.90;;;;;;5051087;28;20028;-44
2022/06/08 01:35:15;;;;;;;7.78;4.88;;;15.70;99.90;;;;;;5051251;28;20021;-44
2022/06/08 01:37:56;;;;;;;9.60;4.97;;;15.70;99.90;;;;;;5028781;28;20090;-46
2022/06/08 01:40:43;;;;;;;5.90;5.32;;;15.60;99.90;;;;;;5051075;28;20400;-44
2022/06/08 01:43:24;;;;;;;8.07;5.25;;;15.60;99.90;;;;;;5050950;28;20437;-45
2022/06/08 01:46:14;;;;;;;7.53;5.10;;;15.60;99.90;;;;;;5050970;28;20401;-45
2022/06/08 01:48:47;;;;;;;8.65;5.45;;;15.60;99.90;;;;;;5050962;28;20481;-44
2022/06/08 01:51:18;;;;;;;14.18;5.82;;;15.60;99.90;;;;;;5049509;28;20153;-46
2022/06/08 01:53:50;;;;;;;6.53;4.93;;;15.70;99.90;;;;;;5050908;28;20442;-44
2022/06/08 01:56:50;;;;;;;9.45;5.07;;;15.60;99.90;;;;;;5050547;28;20099;-44
2022/06/08 01:59:38;;;;;;;4.78;4.43;;;15.70;99.90;;;;;;5050738;28;20024;-43
2022/06/08 02:02:27;;;;;;;6.65;5.97;;;15.70;99.90;;;;;;5050651;28;20029;-44
2022/06/08 02:05:21;;;;;;;10.40;5.72;;;15.70;99.90;;;;;;5050781;28;20099;-43
2022/06/08 02:08:11;;;;;;;7.53;5.57;;;15.80;99.90;;;;;;5044070;28;20116;-43
2022/06/08 02:10:53;;;;;;;5.32;4.75;;;15.70;99.90;;;;;;5054386;28;20025;-43
2022/06/08 02:13:30;;;;;;;6.72;4.88;;;15.70;99.90;;;;;;5054330;28;20506;-44
2022/06/08 02:16:02;;;;;;;6.60;4.70;;;15.70;99.90;;;;;;5052929;28;20028;-44
2022/06/08 02:19:06;;;;;;;7.40;5.53;;;15.70;99.90;;;;;;5053380;28;20388;-43
2022/06/08 02:21:37;;;;;;;8.10;4.40;;;15.70;99.90;;;;;;5020231;28;20040;-44
2022/06/08 02:24:15;;;;;;;8.80;4.53;;;15.70;99.90;;;;;;5054188;28;20021;-45
2022/06/08 02:26:49;;;;;;;5.15;4.30;;;15.70;99.90;;;;;;5053988;28;20028;-45
2022/06/08 02:29:35;;;;;;;5.10;4.20;;;15.70;99.90;;;;;;5054042;28;20111;-46
2022/06/08 02:34:57;;;;;;;8.10;4.88;;;15.70;99.90;;;;;;5053888;28;20024;-44
2022/06/08 02:37:28;;;;;;;7.47;5.05;;;15.70;99.90;;;;;;5052229;28;20055;-46
2022/06/08 02:40:05;;;;;;;5.38;4.40;;;15.70;99.90;;;;;;5053735;28;20017;-44
2022/06/08 02:42:39;;;;;;;5.32;4.63;;;15.70;99.90;;;;;;5053657;28;20315;-41
2022/06/08 02:45:33;;;;;;;5.75;4.22;;;15.80;99.90;;;;;;5053838;28;20029;-44
2022/06/08 02:48:05;;;;;;;5.55;4.47;;;15.70;99.90;;;;;;5052726;28;20044;-43
2022/06/08 02:50:32;;;;;;;4.68;4.03;;;15.80;99.90;;;;;;5053675;28;20031;-44
2022/06/08 02:53:06;;;;;;;9.15;4.72;;;15.90;99.90;;;;;;5053397;28;20025;-45
2022/06/08 02:55:58;;;;;;;5.55;4.35;;;15.90;99.90;;;;;;5053504;28;20110;-46
2022/06/08 02:58:34;;;;;;;5.40;4.90;;;15.80;99.90;;;;;;5052966;28;20029;-44
2022/06/08 03:01:05;;;;;;;12.00;4.45;;;15.80;99.90;;;;;;5053244;28;20070;-43
2022/06/08 03:03:46;;;;;;;7.13;4.93;;;15.80;99.90;;;;;;5053357;28;20020;-46
2022/06/08 03:06:17;;;;;;;8.85;4.97;;;15.70;99.90;;;;;;5053379;28;20032;-44
2022/06/08 03:08:58;;;;;;;11.68;5.07;;;15.80;99.90;;;;;;5051313;28;20119;-51
2022/06/08 03:11:27;;;;;;;9.60;5.55;;;15.70;99.90;;;;;;5052072;28;20036;-43
2022/06/08 03:14:04;;;;;;;7.90;5.50;;;15.70;99.90;;;;;;5051825;28;20028;-44
2022/06/08 03:16:36;;;;;;;9.85;5.60;;;15.70;99.90;;;;;;5051854;28;20028;-43
2022/06/08 03:19:02;;;;;;;6.15;5.10;;;15.70;99.90;;;;;;5052403;28;20108;-44
2022/06/08 03:21:28;;;;;;;10.60;6.78;;;15.80;99.90;;;;;;5053011;28;20025;-44
2022/06/08 03:23:55;;;;;;;7.50;5.95;;;15.70;99.90;;;;;;5052854;28;20027;-46
2022/06/08 03:26:23;;;;;;;7.32;5.55;;;15.70;99.90;;;;;;5053050;28;20036;-45
2022/06/08 03:28:49;;;;;;;8.60;6.10;;;15.70;99.90;;;;;;5052599;28;20520;-43
2022/06/08 03:31:15;;;;;;;8.05;6.35;;;15.60;99.90;;;;;;5053210;28;20021;-44
2022/06/08 03:33:40;;;;;;;8.02;6.43;;;15.70;99.90;;;;;;5053116;28;20488;-42
2022/06/08 03:36:07;;;;;;;6.65;5.82;;;15.70;99.90;;;;;;5052986;28;20115;-44
2022/06/08 03:38:32;;;;;;;7.63;6.25;;;15.70;99.90;;;;;;5052355;28;20021;-44
2022/06/08 03:40:58;;;;;;;7.57;5.85;;;15.70;99.90;;;;;;5051494;28;20052;-45
2022/06/08 03:43:24;;;;;;;7.50;5.65;;;15.70;99.90;;;;;;5052729;28;20025;-42
2022/06/08 03:45:56;;;;;;;10.65;5.80;;;15.70;99.90;;;;;;5052537;28;20025;-45
2022/06/08 03:48:23;;;;;;;7.85;5.82;;;15.80;99.90;;;;;;5052292;28;20033;-44
2022/06/08 03:50:50;;;;;;;8.23;6.03;;;15.80;99.90;;;;;;5053735;28;20515;-44
2022/06/08 03:53:22;;;;;;;7.20;6.50;;;15.80;99.90;;;;;;5054026;28;20029;-43
2022/06/08 03:55:50;;;;;;;7.55;6.07;;;15.80;99.90;;;;;;5046796;28;20044;-43
2022/06/08 03:58:16;;;;;;;7.32;6.20;;;15.90;99.90;;;;;;5032432;28;20100;-44
2022/06/08 04:00:43;;;;;;;9.35;5.55;;;15.90;99.90;;;;;;5047191;28;20102;-47
2022/06/08 04:03:09;;;;;;;8.32;5.78;;;15.90;99.90;;;;;;5041977;28;20021;-45
2022/06/08 04:05:36;;;;;;;8.10;6.18;;;15.90;99.90;;;;;;5042536;28;20029;-44
2022/06/08 04:08:02;;;;;;;9.90;5.88;;;16.00;99.90;;;;;;5049458;28;20035;-49
2022/06/08 04:10:27;;;;;;;7.47;5.70;;;16.00;99.90;;;;;;5052202;28;20044;-44
2022/06/08 04:12:54;;;;;;;6.22;5.40;;;16.00;99.90;;;;;;5052219;28;20441;-44
2022/06/08 04:18:03;;;;;;;15.02;5.57;;;16.10;99.90;;;;;;5041196;28;20027;-48
2022/06/08 04:20:29;;;;;;;8.13;5.38;;;16.10;99.90;;;;;;5051160;28;20388;-45
2022/06/08 04:22:55;;;;;;;8.40;5.60;;;16.20;99.90;;;;;;5045588;28;20552;-44
2022/06/08 04:25:20;;;;;;;5.97;5.38;;;16.20;99.90;;;;;;5047619;28;20112;-49
2022/06/08 04:27:46;;;;;;;6.60;5.70;;;16.10;99.90;;;;;;5051459;28;20036;-45
2022/06/08 04:30:12;;;;;;;10.85;5.35;;;16.20;99.90;;;;;;5045004;28;20033;-43
2022/06/08 04:32:38;;;;;;;7.30;5.97;;;16.20;99.90;;;;;;5031702;28;20083;-43
2022/06/08 04:35:04;;;;;;;6.97;5.90;;;16.30;99.90;;;;;;5038996;28;20107;-45
2022/06/08 04:37:30;;;;;;;11.45;5.38;;;16.30;99.90;;;;;;5051888;28;20443;-44
2022/06/08 04:39:56;;;;;;;9.68;5.88;;;16.30;99.90;;;;;;5051700;28;20104;-39
2022/06/08 04:42:22;;;;;;;8.27;6.07;;;16.30;99.90;;;;;;5046731;28;20111;-46
2022/06/08 04:44:47;;;;;;;13.98;6.00;;;16.30;99.90;;;;;;5038038;28;20021;-48
2022/06/08 04:47:13;;;;;;;8.40;6.35;;;16.30;99.90;;;;;;5030260;28;20512;-46
2022/06/08 04:49:38;;;;;;;12.45;6.55;;;16.30;99.90;;;;;;5051395;28;20032;-47
2022/06/08 04:52:05;;;;;;;7.95;6.50;;;16.30;99.90;;;;;;5051128;28;20044;-42
2022/06/08 04:54:30;;;;;;;10.50;6.53;;;16.40;99.90;;;;;;5051708;28;20400;-48
2022/06/08 04:56:56;;;;;;;9.93;5.13;;;16.50;99.90;;;;;;5051415;28;20029;-48
2022/06/08 04:59:21;;;;;;;11.75;6.63;;;16.80;99.90;;;;;;5051728;28;20377;-45
2022/06/08 05:01:47;;;;;;;8.68;5.53;;;17.10;99.90;;;;;;5031479;28;20056;-43
2022/06/08 05:04:13;;;;;;;7.30;5.03;;;17.40;99.90;;;;;;5031706;28;20108;-43
2022/06/08 05:06:39;;;;;;;8.57;6.03;;;17.70;99.90;;;;;;5031592;28;20034;-44
2022/06/08 05:09:05;;;;;;;10.38;5.88;;;18.20;99.90;;;;;;5033660;28;20041;-49
2022/06/08 05:11:30;;;;;;;10.23;5.85;;;18.50;99.90;;;;;;5035982;28;20025;-48
2022/06/08 05:13:56;;;;;;;5.55;4.63;;;19.00;99.90;;;;;;5071498;28;20480;-42
2022/06/08 05:16:21;;;;;;;6.93;5.53;;;19.10;99.90;;;;;;5053668;28;20025;-43
2022/06/08 05:18:47;;;;;;;9.77;5.00;;;18.90;99.90;;;;;;5044959;28;20029;-44
2022/06/08 05:21:13;;;;;;;8.80;5.53;;;18.70;99.90;;;;;;5050324;28;20070;-44
2022/06/08 05:23:40;;;;;;;5.30;4.80;;;18.40;99.90;;;;;;5031498;28;20082;-43
2022/06/08 05:26:05;;;;;;;9.40;5.10;;;18.20;99.90;;;;;;5029748;28;20033;-43
2022/06/08 05:28:31;;;;;;;12.27;5.70;;;17.90;99.90;;;;;;5030955;28;20408;-46
2022/06/08 05:30:57;;;;;;;11.15;5.13;;;17.90;99.90;;;;;;5030928;28;20033;-44
2022/06/08 05:33:27;;;;;;;5.50;5.03;;;17.90;99.90;;;;;;5035900;28;20029;-45
2022/06/08 05:35:54;;;;;;;5.22;4.72;;;18.10;99.90;;;;;;5050720;28;20071;-45
2022/06/08 05:38:20;;;;;;;9.18;4.50;;;18.10;99.90;;;;;;5041937;28;20017;-46
2022/06/08 05:40:46;;;;;;;8.88;4.47;;;18.40;99.90;;;;;;5031075;28;20072;-46
2022/06/08 05:43:14;;;;;;;10.48;5.25;;;18.60;99.90;;;;;;5032614;28;20025;-46
2022/06/08 05:45:40;;;;;;;6.50;4.65;;;18.60;99.90;;;;;;5039605;28;20033;-44
2022/06/08 05:48:07;;;;;;;6.00;4.93;;;18.40;99.90;;;;;;5054389;28;20392;-45
2022/06/08 05:50:33;;;;;;;7.47;5.00;;;18.30;99.90;;;;;;5047176;28;20615;-44
2022/06/08 05:52:59;;;;;;;12.20;5.38;;;18.20;99.90;;;;;;5044858;28;20382;-43
2022/06/08 05:55:26;;;;;;;8.90;5.07;;;18.20;99.90;;;;;;5042067;28;20081;-44
2022/06/08 05:57:52;;;;;;;4.40;4.00;;;18.30;99.90;;;;;;5054174;28;20029;-43
2022/06/08 06:00:21;;;;;;;7.32;5.20;;;19.00;99.90;;;;;;5038731;28;20044;-44
2022/06/08 06:02:47;;;;;;;7.63;4.13;;;19.90;99.90;;;;;;5074969;23;20045;-47
2022/06/08 06:05:14;;;;;;;6.03;3.25;;;20.70;99.90;;;;;;5058788;28;20025;-50
2022/06/08 06:07:42;;;;;;;8.77;3.50;;;21.60;99.90;;;;;;5057038;28;20029;-47
2022/06/08 06:10:09;;;;;;;3.92;2.67;;;22.40;99.90;;;;;;5039840;28;20041;-48
2022/06/08 06:12:34;;;;;;;7.72;3.90;;;23.00;99.90;;;;;;5049410;28;20055;-48
2022/06/08 06:15:03;;;;;;;6.72;3.42;;;23.00;99.90;;;;;;5058144;28;20029;-49
2022/06/08 06:17:29;;;;;;;8.02;3.42;;;23.20;99.90;;;;;;5055300;28;20025;-47
2022/06/08 06:19:55;;;;;;;6.53;3.17;;;23.40;99.90;;;;;;5058985;28;20029;-51
2022/06/08 06:22:21;;;;;;;12.02;3.33;;;23.90;99.90;;;;;;5053017;28;20093;-47
2022/06/08 06:24:47;;;;;;;8.82;3.03;;;24.20;98.80;;;;;;5045140;28;20484;-52
2022/06/08 06:27:13;;;;;;;6.07;2.65;;;24.40;98.50;;;;;;5054132;28;20017;-49
2022/06/08 06:29:38;;;;;;;5.50;2.25;;;24.20;97.60;;;;;;5061601;28;20104;-51
2022/06/08 06:32:10;;;;;;;7.35;2.70;;;23.60;98.50;;;;;;5058422;28;20029;-49
2022/06/08 06:34:35;;;;;;;5.00;2.75;;;22.90;99.30;;;;;;5049288;28;20044;-50
2022/06/08 06:37:01;;;;;;;4.90;2.90;;;22.30;99.90;;;;;;5055520;28;20029;-47
2022/06/08 06:39:27;;;;;;;5.75;2.90;;;21.80;99.90;;;;;;5054057;28;20031;-52
2022/06/08 06:41:53;;;;;;;5.13;2.92;;;21.50;99.90;;;;;;5056472;28;20032;-50
2022/06/08 06:44:19;;;;;;;9.18;3.15;;;21.30;99.90;;;;;;5057469;28;20029;-49
2022/06/08 06:46:45;;;;;;;7.13;2.90;;;21.20;99.90;;;;;;5043164;28;20060;-52
2022/06/08 06:49:11;;;;;;;3.22;2.20;;;21.10;99.90;;;;;;5050086;28;20037;-50
2022/06/08 06:51:37;;;;;;;10.13;3.00;;;20.90;99.90;;;;;;5056501;28;20072;-50
2022/06/08 06:54:04;;;;;;;6.90;3.13;;;20.80;99.90;;;;;;5058275;28;20029;-47
2022/06/08 06:56:30;;;;;;;7.78;2.92;;;20.50;99.90;;;;;;5054248;28;20029;-51
2022/06/08 06:58:56;;;;;;;5.10;3.25;;;20.40;99.90;;;;;;5060920;28;20021;-46
2022/06/08 07:01:21;;;;;;;39.08;27.20;;;20.20;99.90;;;;;;5057975;28;20021;-47
2022/06/08 07:03:47;;;;;;;64.55;46.65;;;20.10;99.90;;;;;;5055469;28;20027;-47
2022/06/08 07:06:12;;;;;;;7.03;4.10;;;20.00;99.90;;;;;;5055850;28;20397;-48
2022/06/08 07:08:39;;;;;;;3.63;3.00;;;19.90;99.90;;;;;;5058361;28;20054;-50
2022/06/08 07:13:50;;;;;;;5.10;2.85;;;20.00;99.90;;;;;;5042285;28;20041;-47
2022/06/08 07:16:16;;;;;;;7.32;2.97;;;20.20;99.90;;;;;;5053739;28;20029;-52
2022/06/08 07:18:41;;;;;;;4.13;2.80;;;20.30;99.90;;;;;;5049443;28;20492;-49
2022/06/08 07:21:09;;;;;;;5.70;3.20;;;20.70;99.90;;;;;;5055916;28;20104;-49
2022/06/08 07:23:34;;;;;;;7.18;3.92;;;20.80;99.90;;;;;;5058339;28;20017;-55
2022/06/08 07:26:00;;;;;;;11.32;3.13;;;21.10;99.90;;;;;;5058482;28;20041;-51
2022/06/08 07:28:26;;;;;;;5.72;2.78;;;21.10;99.90;;;;;;5051994;28;20026;-47
2022/06/08 07:30:52;;;;;;;2.47;2.28;;;21.10;99.90;;;;;;5054043;28;20029;-48
2022/06/08 07:33:19;;;;;;;3.28;2.30;;;21.20;99.90;;;;;;5056766;28;20438;-47
2022/06/08 07:35:45;;;;;;;4.95;2.63;;;21.30;99.90;;;;;;5055867;28;20025;-49
2022/06/08 07:38:11;;;;;;;6.07;2.50;;;21.30;99.90;;;;;;5053483;28;20044;-50
2022/06/08 07:40:36;;;;;;;5.55;2.00;;;21.50;99.90;;;;;;5054004;28;20496;-45
2022/06/08 07:43:02;;;;;;;2.95;1.80;;;22.20;99.90;;;;;;5054249;28;20025;-49
2022/06/08 07:45:27;;;;;;;6.25;1.73;;;23.30;99.90;;;;;;5053965;28;20405;-44
2022/06/08 07:50:37;;;;;;;2.53;1.55;;;25.40;98.50;;;;;;5077647;28;20036;-47
2022/06/08 07:53:02;;;;;;;2.80;1.83;;;26.50;96.40;;;;;;5073952;28;20024;-47
2022/06/08 07:55:28;;;;;;;6.05;2.17;;;27.40;94.90;;;;;;5074469;28;20028;-46
2022/06/08 07:57:54;;;;;;;6.00;1.92;;;28.00;93.00;;;;;;5063983;28;20029;-48
2022/06/08 08:00:20;;;;;;;6.03;2.88;;;28.90;91.60;;;;;;5076593;28;20329;-47
2022/06/08 08:02:46;;;;;;;9.38;2.60;;;29.20;91.40;;;;;;5069138;28;20492;-48
2022/06/08 08:05:13;;;;;;;4.80;1.92;;;29.10;91.30;;;;;;5078680;28;20080;-53
2022/06/08 08:07:40;;;;;;;4.57;2.30;;;29.30;88.70;;;;;;5079213;28;20036;-47
2022/06/08 08:10:12;;;;;;;5.22;1.75;;;29.20;88.60;;;;;;5075665;28;20024;-47
2022/06/08 08:12:37;;;;;;;5.45;2.28;;;29.10;88.60;;;;;;5077295;28;20084;-47
2022/06/08 08:15:04;;;;;;;4.40;2.58;;;29.00;87.50;;;;;;5081796;28;20029;-45
2022/06/08 08:17:30;;;;;;;8.93;1.85;;;28.80;87.70;;;;;;5080852;28;20025;-51
2022/06/08 08:19:55;;;;;;;4.47;2.47;;;28.40;87.90;;;;;;5082894;28;20055;-50
2022/06/08 08:22:21;;;;;;;3.42;1.70;;;27.90;88.80;;;;;;5082314;28;20032;-48
2022/06/08 08:24:47;;;;;;;3.88;1.98;;;27.40;89.70;;;;;;5073119;28;20024;-44
2022/06/08 08:27:13;;;;;;;5.07;1.88;;;26.70;90.40;;;;;;5071641;28;20035;-46
2022/06/08 08:29:39;;;;;;;2.72;1.90;;;26.30;90.60;;;;;;5072060;28;20036;-44
2022/06/08 08:32:07;;;;;;;2.58;1.83;;;26.00;91.00;;;;;;5071953;28;20099;-46
2022/06/08 08:34:33;;;;;;;5.40;1.85;;;25.70;91.50;;;;;;5071394;28;20029;-43
2022/06/08 08:36:58;;;;;;;8.90;2.33;;;25.30;92.80;;;;;;5071632;28;20031;-46
2022/06/08 08:39:24;;;;;;;6.60;1.60;;;24.90;92.90;;;;;;5071861;28;20358;-44
2022/06/08 08:44:37;;;;;;;4.37;1.90;;;24.70;93.70;;;;;;5072325;28;20450;-44
2022/06/08 08:47:30;;;;;;;6.45;1.90;;;24.80;93.20;;;;;;5071589;28;20263;-45
2022/06/08 08:50:08;;;;;;;3.22;1.60;;;24.60;92.50;;;;;;5072050;28;20020;-45
2022/06/08 08:52:41;;;;;;;4.95;1.75;;;24.30;93.50;;;;;;5071803;28;20423;-50
2022/06/08 08:55:25;;;;;;;4.22;1.55;;;23.90;93.00;;;;;;5070283;28;20119;-47
2022/06/08 08:58:19;;;;;;;8.70;1.80;;;23.50;93.90;;;;;;5071261;28;20032;-45
2022/06/08 09:00:55;;;;;;;5.97;2.20;;;23.00;94.70;;;;;;5063619;28;20136;-45
2022/06/08 09:03:41;;;;;;;6.68;2.40;;;22.70;95.10;;;;;;5071787;28;20036;-49
2022/06/08 09:06:13;;;;;;;8.68;1.98;;;22.40;95.60;;;;;;5071938;28;20028;-45
2022/06/08 09:08:40;;;;;;;7.43;1.60;;;22.10;96.10;;;;;;5071255;28;20060;-44
2022/06/08 09:11:18;;;;;;;5.40;2.13;;;22.00;96.40;;;;;;5072064;28;20032;-46
2022/06/08 09:13:49;;;;;;;4.07;1.42;;;21.90;96.00;;;;;;5070046;28;20403;-43
2022/06/08 09:16:36;;;;;;;3.80;1.52;;;21.80;96.30;;;;;;5071630;28;20444;-44
2022/06/08 09:19:21;;;;;;;12.98;1.80;;;21.70;96.70;;;;;;5075271;28;20508;-42
2022/06/08 09:21:49;;;;;;;3.88;1.52;;;21.60;96.70;;;;;;5075914;28;20032;-45
2022/06/08 09:24:29;;;;;;;11.45;6.85;;;21.50;96.30;;;;;;5075359;28;20408;-45
2022/06/08 09:27:11;;;;;;;20.45;14.35;;;21.50;96.30;;;;;;5075292;28;20067;-46
2022/06/08 09:29:48;;;;;;;6.50;3.85;;;21.40;96.60;;;;;;5075553;28;20116;-46
2022/06/08 09:32:37;;;;;;;9.32;1.65;;;21.50;97.00;;;;;;5075385;28;20029;-47
2022/06/08 09:35:15;;;;;;;3.63;1.15;;;21.60;96.10;;;;;;5075334;28;20025;-44
2022/06/08 09:37:40;;;;;;;4.97;1.77;;;21.50;95.90;;;;;;5074935;28;20060;-47
2022/06/08 09:40:36;;;;;;;4.70;1.55;;;21.50;95.90;;;;;;5075320;28;20055;-45
2022/06/08 09:43:25;;;;;;;7.90;2.10;;;21.50;96.40;;;;;;5074923;28;20054;-48
2022/06/08 09:45:54;;;;;;;7.38;1.55;;;21.40;96.80;;;;;;5075168;28;20105;-45
2022/06/08 09:52:05;;;;;;;6.85;2.17;;;21.60;96.60;;;;;;5075285;28;20044;-45
2022/06/08 09:54:42;;;;;;;4.18;1.15;;;21.70;95.60;;;;;;5075099;28;20041;-46
2022/06/08 09:57:28;;;;;;;5.10;1.33;;;21.80;95.80;;;;;;5074673;28;20028;-44
2022/06/08 09:59:59;;;;;;;4.57;1.35;;;22.10;95.80;;;;;;5075479;28;20431;-43
2022/06/08 10:02:46;;;;;;;2.75;1.55;;;22.30;94.00;;;;;;5075617;28;20032;-45
2022/06/08 10:05:23;;;;;;;2.60;1.13;;;22.30;93.90;;;;;;5075540;28;20445;-44
2022/06/08 10:08:07;;;;;;;6.88;1.35;;;22.40;93.70;;;;;;5074497;28;20379;-46
2022/06/08 10:10:38;;;;;;;5.28;1.38;;;22.30;94.10;;;;;;5074816;28;20078;-45
2022/06/08 10:13:20;;;;;;;11.43;2.05;;;22.30;94.10;;;;;;5074705;28;20074;-44
2022/06/08 10:15:54;;;;;;;5.43;1.30;;;22.20;93.50;;;;;;5074380;28;20103;-46
2022/06/08 10:18:26;;;;;;;4.50;1.33;;;22.20;93.80;;;;;;5074031;28;20025;-45
2022/06/08 10:20:55;;;;;;;5.07;1.30;;;22.00;93.30;;;;;;5074477;28;20021;-45
2022/06/08 10:23:42;;;;;;;3.25;1.20;;;21.90;94.00;;;;;;5074317;28;20039;-45
2022/06/08 10:26:22;;;;;;;10.90;1.52;;;21.70;94.50;;;;;;5074309;28;20495;-45
2022/06/08 10:28:52;;;;;;;5.25;1.27;;;21.60;95.00;;;;;;5073343;28;20036;-45
2022/06/08 10:31:23;;;;;;;2.03;1.00;;;21.60;94.30;;;;;;5074331;28;20020;-47
2022/06/08 10:34:15;;;;;;;1.45;1.20;;;21.60;94.70;;;;;;5073975;28;20020;-45
2022/06/08 10:36:41;;;;;;;6.25;1.27;;;21.70;94.40;;;;;;5074093;28;20024;-44
2022/06/08 10:39:08;;;;;;;2.92;1.10;;;21.60;94.50;;;;;;5073569;28;20496;-46
2022/06/08 10:44:50;;;;;;;7.35;1.50;;;21.80;94.20;;;;;;5074508;28;20036;-43
2022/06/08 10:47:29;;;;;;;9.18;1.80;;;22.00;94.50;;;;;;5073733;28;20017;-45
2022/06/08 10:50:00;;;;;;;18.83;2.42;;;22.30;94.70;;;;;;5073909;28;20024;-48
2022/06/08 10:52:29;;;;;;;4.20;1.35;;;22.50;92.90;;;;;;5073740;28;20404;-47
2022/06/08 10:55:15;;;;;;;9.00;1.67;;;22.70;92.70;;;;;;5073808;28;20106;-43
2022/06/08 10:57:52;;;;;;;7.32;1.90;;;22.80;92.70;;;;;;5073165;28;20025;-45
2022/06/08 11:00:20;;;;;;;5.53;1.05;;;22.90;92.30;;;;;;5073594;28;20499;-45
2022/06/08 11:02:52;;;;;;;8.07;1.35;;;22.90;92.50;;;;;;5073437;28;20028;-46
2022/06/08 11:05:29;;;;;;;5.72;1.30;;;23.00;92.00;;;;;;5073635;28;20029;-45
2022/06/08 11:08:10;;;;;;;20.52;1.75;;;23.10;91.40;;;;;;5073172;28;20404;-47
2022/06/08 11:10:41;;;;;;;4.95;1.80;;;22.90;91.40;;;;;;5073492;28;20484;-48
2022/06/08 11:13:22;;;;;;;6.75;1.58;;;22.80;91.80;;;;;;5073110;28;20056;-47
2022/06/08 11:15:47;;;;;;;5.10;1.50;;;22.60;92.00;;;;;;5071767;28;20059;-45
2022/06/08 11:18:30;;;;;;;7.20;1.73;;;22.60;92.30;;;;;;5072768;28;20052;-48
2022/06/08 11:21:11;;;;;;;9.80;1.33;;;22.50;92.10;;;;;;5072034;28;20134;-44
2022/06/08 11:23:50;;;;;;;9.15;1.25;;;22.40;92.10;;;;;;5073034;28;20028;-44
2022/06/08 11:26:25;;;;;;;2.63;1.30;;;22.30;92.50;;;;;;5073179;28;20016;-47
2022/06/08 11:28:56;;;;;;;3.05;1.00;;;22.30;92.70;;;;;;5072710;28;20194;-46
2022/06/08 11:31:25;;;;;;;4.20;1.20;;;22.30;92.80;;;;;;5073120;28;20067;-45
2022/06/08 11:33:53;;;;;;;4.85;2.13;;;22.20;92.50;;;;;;5072504;28;20036;-44
2022/06/08 11:36:40;;;;;;;4.05;1.38;;;22.20;93.00;;;;;;5072568;28;20025;-50
2022/06/08 11:39:40;;;;;;;8.43;3.38;;;22.20;93.40;;;;;;5072416;28;20053;-49
2022/06/08 11:42:24;;;;;;;14.65;10.32;;;22.20;93.30;;;;;;5072847;28;20025;-48
2022/06/08 11:45:24;;;;;;;5.53;1.40;;;22.20;93.50;;;;;;5071644;28;20024;-48
2022/06/08 11:47:58;;;;;;;5.05;1.10;;;22.10;93.80;;;;;;5072435;28;20472;-44
2022/06/08 11:50:30;;;;;;;8.95;1.23;;;22.00;93.90;;;;;;5072653;28;20103;-46
2022/06/08 11:53:02;;;;;;;7.47;1.67;;;22.00;93.80;;;;;;5071228;28;20392;-45
2022/06/08 11:55:29;;;;;;;6.32;1.40;;;22.00;93.80;;;;;;5072361;28;20055;-44
2022/06/08 11:58:08;;;;;;;2.95;1.27;;;22.00;93.60;;;;;;5072069;28;20033;-45
2022/06/08 12:00:51;;;;;;;4.32;1.75;;;21.90;94.10;;;;;;5072809;28;20019;-46
2022/06/08 12:03:16;;;;;;;2.97;1.38;;;21.90;94.10;;;;;;5094614;22;20117;-44
2022/06/08 12:05:47;;;;;;;8.15;1.17;;;21.80;94.30;;;;;;5072484;28;20083;-45
2022/06/08 12:08:29;;;;;;;4.40;1.40;;;21.80;94.10;;;;;;5071346;28;20507;-46
2022/06/08 12:10:55;;;;;;;6.28;1.52;;;21.70;94.40;;;;;;5070879;28;20445;-41
2022/06/08 12:13:22;;;;;;;4.10;1.65;;;21.60;94.20;;;;;;5067518;28;20059;-46
2022/06/08 12:15:53;;;;;;;4.40;1.65;;;21.60;94.50;;;;;;5052420;28;20079;-45
2022/06/08 12:18:39;;;;;;;3.40;1.10;;;21.60;94.50;;;;;;5051774;28;20029;-41
2022/06/08 12:21:24;;;;;;;5.72;1.67;;;21.60;94.50;;;;;;5050298;28;20151;-44
2022/06/08 12:24:12;;;;;;;1.38;0.93;;;21.50;94.80;;;;;;5051715;28;20029;-44
2022/06/08 12:26:46;;;;;;;3.75;1.50;;;21.50;94.80;;;;;;5051689;28;20039;-46
2022/06/08 12:29:25;;;;;;;4.82;1.35;;;21.40;95.10;;;;;;5051802;28;20029;-43
2022/06/08 12:32:06;;;;;;;3.70;1.17;;;21.30;95.30;;;;;;5048430;28;20434;-47
2022/06/08 12:35:10;;;;;;;2.60;1.17;;;21.30;95.30;;;;;;5031502;28;20075;-46
2022/06/08 12:37:43;;;;;;;6.70;2.03;;;21.30;94.90;;;;;;5031559;28;20068;-45
2022/06/08 12:40:17;;;;;;;3.72;1.42;;;21.20;93.70;;;;;;5042499;28;20060;-44
2022/06/08 12:42:49;;;;;;;7.20;1.58;;;21.10;93.70;;;;;;5041900;28;20485;-45
2022/06/08 12:45:33;;;;;;;5.25;1.00;;;21.10;93.20;;;;;;5032910;28;20025;-48
2022/06/08 12:48:37;;;;;;;4.82;1.27;;;21.10;92.80;;;;;;5034062;28;20021;-46
2022/06/08 12:51:21;;;;;;;2.42;0.88;;;21.10;92.00;;;;;;5008908;28;20030;-47
2022/06/08 12:53:47;;;;;;;6.03;0.90;;;21.20;92.20;;;;;;5036416;28;20234;-46
2022/06/08 12:56:13;;;;;;;5.22;1.17;;;21.20;93.00;;;;;;5051557;28;20064;-45
2022/06/08 12:58:38;;;;;;;2.40;1.17;;;21.30;93.50;;;;;;5051305;28;20025;-43
2022/06/08 13:01:04;;;;;;;4.43;1.10;;;21.40;93.80;;;;;;5051521;28;20029;-50
2022/06/08 13:03:30;;;;;;;7.47;1.20;;;21.50;93.90;;;;;;5051059;28;20072;-50
2022/06/08 13:05:56;;;;;;;4.60;1.40;;;21.60;94.00;;;;;;5041849;28;20057;-46
2022/06/08 13:08:25;;;;;;;7.82;1.25;;;21.70;93.80;;;;;;5035485;28;20378;-46
2022/06/08 13:10:54;;;;;;;1.80;1.00;;;21.70;94.10;;;;;;5049189;28;20029;-45
2022/06/08 13:13:26;;;;;;;46.97;30.95;;;21.70;94.40;;;;;;5046121;28;20500;-46
2022/06/08 13:15:53;;;;;;;95.28;64.45;;;21.70;94.10;;;;;;5031704;28;20478;-49
2022/06/08 13:18:23;;;;;;;4.32;2.53;;;21.70;93.70;;;;;;5031196;28;20021;-49
2022/06/08 13:20:51;;;;;;;2.92;1.02;;;21.70;94.20;;;;;;5031674;28;20337;-47
2022/06/08 13:23:17;;;;;;;7.53;1.20;;;21.70;95.00;;;;;;5031781;28;20096;-58
2022/06/08 13:25:46;;;;;;;4.35;1.00;;;21.60;95.20;;;;;;5036885;28;20090;-50
2022/06/08 13:28:18;;;;;;;2.05;0.90;;;21.60;95.30;;;;;;5051408;28;20025;-49
2022/06/08 13:30:46;;;;;;;3.22;0.95;;;21.60;94.80;;;;;;5050934;28;20029;-47